Time;durP1;ratioP1;P1;durP2;ratioP2;P2;SDS_P1;SDS_P2;PMS_P1;PMS_P2;Temp;Humidity;BMP_temperature;BMP_pressure;BME280_temperature;BME280_humidity;BME280_pressure;Samples;Min_cycle;Max_cycle;Signal;HPM_P1;HPM_P2
2022/11/18 00:00:49;;;;;;;17.23;12.25;;;7.00;99.90;;;;;;4946112;28;20113;-92
2022/11/18 00:03:15;;;;;;;18.15;12.45;;;6.90;99.90;;;;;;4959530;28;20039;-92
2022/11/18 00:05:40;;;;;;;16.88;11.93;;;8.20;99.90;;;;;;4962552;28;20049;-91
2022/11/18 00:08:06;;;;;;;18.08;12.85;;;8.10;99.90;;;;;;4974078;28;20042;-91
2022/11/18 00:10:32;;;;;;;17.67;12.23;;;7.00;99.90;;;;;;4958284;28;20089;-92
2022/11/18 00:15:42;;;;;;;16.52;11.35;;;6.90;99.90;;;;;;4979601;28;20566;-91
2022/11/18 00:18:07;;;;;;;16.23;11.55;;;6.90;99.90;;;;;;4942656;28;20045;-91
2022/11/18 00:20:34;;;;;;;17.63;12.25;;;7.70;99.90;;;;;;4926126;28;20125;-92
2022/11/18 00:22:59;;;;;;;17.25;11.70;;;6.90;99.90;;;;;;4957651;28;20050;-93
2022/11/18 00:25:26;;;;;;;18.70;11.65;;;8.10;99.90;;;;;;4958681;28;20100;-91
2022/11/18 00:27:53;;;;;;;17.75;11.65;;;6.90;99.90;;;;;;4958391;28;20042;-91
2022/11/18 00:30:19;;;;;;;16.48;10.95;;;7.50;99.90;;;;;;4960988;28;20483;-92
2022/11/18 00:32:45;;;;;;;16.60;11.07;;;6.90;99.90;;;;;;4958837;28;20053;-92
2022/11/18 00:35:10;;;;;;;18.23;11.90;;;8.10;99.90;;;;;;4958002;28;20446;-92
2022/11/18 00:37:36;;;;;;;18.38;11.02;;;8.00;99.90;;;;;;4927231;28;20597;-92
2022/11/18 00:40:02;;;;;;;18.40;12.00;;;8.00;99.90;;;;;;4942739;28;20038;-91
2022/11/18 00:45:11;;;;;;;17.67;11.38;;;7.60;99.90;;;;;;4947636;28;20066;-91
2022/11/18 00:47:37;;;;;;;17.17;12.00;;;8.50;99.90;;;;;;4952832;28;20299;-92
2022/11/18 00:50:03;;;;;;;19.90;12.70;;;8.40;99.90;;;;;;4923429;28;20046;-92
2022/11/18 00:52:29;;;;;;;17.20;11.27;;;6.80;99.90;;;;;;4955243;28;20038;-93
2022/11/18 00:54:55;;;;;;;18.50;12.38;;;;;;;;;;4939496;28;20061;-92
2022/11/18 00:57:20;;;;;;;18.70;12.38;;;6.90;99.90;;;;;;4955492;28;20046;-92
2022/11/18 00:59:46;;;;;;;20.15;12.65;;;6.80;99.90;;;;;;4959589;28;20049;-92
2022/11/18 01:02:12;;;;;;;18.80;12.50;;;8.10;99.90;;;;;;4962065;28;20100;-93
2022/11/18 01:04:37;;;;;;;19.73;12.73;;;7.80;99.90;;;;;;4962272;28;20038;-92
2022/11/18 01:07:03;;;;;;;20.95;13.32;;;6.80;99.90;;;;;;4930107;28;20045;-91
2022/11/18 01:09:29;;;;;;;18.85;12.10;;;6.80;99.90;;;;;;4946078;28;20043;-93
2022/11/18 01:14:38;;;;;;;21.75;12.85;;;7.90;99.90;;;;;;4950317;28;20152;-93
2022/11/18 01:17:04;;;;;;;20.42;12.75;;;7.10;99.90;;;;;;4962022;28;20125;-92
2022/11/18 01:19:30;;;;;;;21.55;13.27;;;6.80;99.90;;;;;;4962194;28;20049;-92
2022/11/18 01:21:55;;;;;;;18.92;12.75;;;7.10;99.90;;;;;;4943976;28;20046;-92
2022/11/18 01:24:22;;;;;;;21.40;13.48;;;6.80;99.90;;;;;;4945252;28;20085;-90
2022/11/18 01:26:47;;;;;;;21.55;14.02;;;8.10;99.90;;;;;;4946301;28;20042;-92
2022/11/18 01:29:13;;;;;;;21.20;13.43;;;7.60;99.90;;;;;;4948820;28;20054;-92
2022/11/18 01:31:39;;;;;;;20.75;13.02;;;6.80;99.90;;;;;;4946149;28;20526;-93
2022/11/18 01:34:04;;;;;;;22.77;13.77;;;8.40;99.90;;;;;;4945785;28;20034;-92
2022/11/18 01:36:30;;;;;;;20.65;12.60;;;7.00;99.90;;;;;;4942161;28;20090;-92
2022/11/18 01:38:56;;;;;;;22.27;12.82;;;6.80;99.90;;;;;;4961110;28;20042;-92
2022/11/18 01:41:25;;;;;;;19.95;12.75;;;7.80;99.90;;;;;;4961721;28;20038;-92
2022/11/18 01:43:52;;;;;;;21.77;12.98;;;8.40;99.90;;;;;;4978112;28;20140;-94
2022/11/18 01:46:19;;;;;;;20.38;12.57;;;6.80;99.90;;;;;;4975199;28;20035;-91
2022/11/18 01:48:48;;;;;;;22.70;13.25;;;6.80;99.90;;;;;;4982832;28;20039;-94
2022/11/18 01:51:17;;;;;;;22.38;13.50;;;7.10;99.90;;;;;;4976973;28;20045;-92
2022/11/18 01:53:48;;;;;;;21.15;12.10;;;6.80;99.90;;;;;;4977212;28;20038;-93
2022/11/18 01:56:19;;;;;;;21.90;12.00;;;7.20;99.90;;;;;;4960937;28;20484;-93
2022/11/18 01:58:59;;;;;;;22.85;13.23;;;6.80;99.90;;;;;;4961656;28;20504;-94
2022/11/18 02:01:25;;;;;;;22.20;13.25;;;6.80;99.90;;;;;;4969151;28;20042;-93
2022/11/18 02:03:52;;;;;;;21.33;12.18;;;7.00;99.90;;;;;;4929899;28;20104;-92
2022/11/18 02:06:18;;;;;;;21.35;12.95;;;7.60;99.90;;;;;;4944986;28;20034;-91
2022/11/18 02:08:44;;;;;;;23.25;12.77;;;7.80;99.90;;;;;;4961392;28;20042;-93
2022/11/18 02:11:49;;;;;;;21.02;12.63;;;6.70;99.90;;;;;;4959908;28;20495;-91
2022/11/18 02:14:00;;;;;;;20.60;12.05;;;6.70;99.90;;;;;;4964695;28;20081;-92
2022/11/18 02:16:50;;;;;;;25.15;13.32;;;6.70;99.90;;;;;;4961144;28;20080;-92
2022/11/18 02:19:45;;;;;;;19.10;11.57;;;6.70;99.90;;;;;;4976417;28;20038;-92
2022/11/18 02:22:29;;;;;;;24.20;12.68;;;7.60;99.90;;;;;;4958275;28;20043;-92
2022/11/18 02:25:36;;;;;;;22.77;12.50;;;6.70;99.90;;;;;;4976834;28;20078;-92
2022/11/18 02:28:28;;;;;;;21.05;12.27;;;6.70;99.90;;;;;;4960150;28;20113;-92
2022/11/18 02:31:13;;;;;;;25.10;13.13;;;6.70;99.90;;;;;;4972989;28;20143;-93
2022/11/18 02:34:05;;;;;;;23.55;12.68;;;6.70;99.90;;;;;;4960463;28;20090;-93
2022/11/18 02:36:38;;;;;;;22.00;12.60;;;6.60;99.90;;;;;;4957372;28;20411;-93
2022/11/18 02:39:15;;;;;;;18.45;11.45;;;6.70;99.90;;;;;;4957567;28;20034;-92
2022/11/18 02:41:42;;;;;;;21.70;12.30;;;6.90;99.90;;;;;;4973315;28;20045;-91
2022/11/18 02:44:13;;;;;;;22.15;12.65;;;7.80;99.90;;;;;;4973912;28;20035;-92
2022/11/18 02:46:39;;;;;;;23.33;13.32;;;7.20;99.90;;;;;;4973222;28;20070;-92
2022/11/18 02:49:10;;;;;;;23.20;13.45;;;6.60;99.90;;;;;;4957570;28;20035;-92
2022/11/18 02:51:37;;;;;;;23.33;12.38;;;6.60;99.90;;;;;;4973434;28;20027;-92
2022/11/18 02:54:07;;;;;;;20.77;12.68;;;7.60;99.90;;;;;;4956939;28;20184;-92
2022/11/18 02:56:34;;;;;;;24.25;13.18;;;6.60;99.90;;;;;;4957347;28;20057;-92
2022/11/18 02:59:01;;;;;;;20.70;11.85;;;8.30;99.90;;;;;;4937726;29;20476;-92
2022/11/18 03:01:31;;;;;;;21.63;13.07;;;7.00;99.90;;;;;;4955571;28;20455;-91
2022/11/18 03:03:57;;;;;;;24.98;13.40;;;7.40;99.90;;;;;;4973346;28;20042;-92
2022/11/18 03:06:30;;;;;;;21.83;12.68;;;7.70;99.90;;;;;;4956937;28;20381;-91
2022/11/18 03:09:07;;;;;;;23.00;12.68;;;6.60;99.90;;;;;;4972990;28;20043;-92
2022/11/18 03:11:57;;;;;;;19.85;12.90;;;6.50;99.90;;;;;;4970769;28;20043;-92
2022/11/18 03:15:00;;;;;;;19.52;12.85;;;6.50;99.90;;;;;;4956828;28;20171;-91
2022/11/18 03:18:01;;;;;;;21.30;12.68;;;6.50;99.90;;;;;;4953805;29;20063;-91
2022/11/18 03:20:52;;;;;;;19.92;12.02;;;6.50;99.90;;;;;;4942090;29;20075;-91
2022/11/18 03:23:47;;;;;;;18.92;12.02;;;6.50;99.90;;;;;;4955682;28;20086;-92
2022/11/18 03:26:21;;;;;;;20.42;11.88;;;6.50;99.90;;;;;;4956082;28;20088;-91
2022/11/18 03:29:03;;;;;;;20.60;12.18;;;6.50;99.90;;;;;;4973550;28;20109;-91
2022/11/18 03:31:42;;;;;;;19.98;12.07;;;6.50;99.90;;;;;;4955900;28;20515;-92
2022/11/18 03:34:19;;;;;;;21.85;12.85;;;6.50;99.90;;;;;;4957111;28;20101;-91
2022/11/18 03:36:48;;;;;;;18.85;12.10;;;6.50;99.90;;;;;;4958873;28;20125;-91
2022/11/18 03:39:17;;;;;;;19.27;12.13;;;6.40;99.90;;;;;;4959504;28;20396;-92
2022/11/18 03:41:49;;;;;;;19.55;12.52;;;6.50;99.90;;;;;;4941378;28;20121;-91
2022/11/18 03:44:20;;;;;;;20.33;12.50;;;6.50;99.90;;;;;;4971248;28;20049;-91
2022/11/18 03:47:03;;;;;;;21.13;12.20;;;6.50;99.90;;;;;;4954362;28;20293;-92
2022/11/18 03:49:32;;;;;;;;;;;6.70;99.90;;;;;;4976326;28;20482;-92
2022/11/18 03:52:06;;;;;;;22.45;13.13;;;6.80;99.90;;;;;;4975056;28;20005;-91
2022/11/18 03:54:37;;;;;;;22.63;12.35;;;7.90;99.90;;;;;;4975363;28;20117;-92
2022/11/18 03:57:10;;;;;;;19.45;12.10;;;7.70;99.90;;;;;;4959388;28;20046;-92
2022/11/18 03:59:48;;;;;;;19.58;11.73;;;7.30;99.90;;;;;;4959021;28;20049;-92
2022/11/18 04:02:22;;;;;;;20.02;12.20;;;7.30;99.90;;;;;;4974323;28;20046;-92
2022/11/18 04:04:50;;;;;;;20.50;11.73;;;6.40;99.90;;;;;;4967361;28;20038;-92
2022/11/18 04:07:52;;;;;;;19.83;12.55;;;6.40;99.90;;;;;;4973363;28;20041;-92
2022/11/18 04:10:21;;;;;;;21.95;12.93;;;6.40;99.90;;;;;;4949011;28;20038;-92
2022/11/18 04:12:55;;;;;;;19.48;12.05;;;7.90;99.90;;;;;;4974930;28;20046;-92
2022/11/18 04:15:23;;;;;;;19.52;11.90;;;6.40;99.90;;;;;;4974889;28;20048;-93
2022/11/18 04:17:48;;;;;;;20.10;12.23;;;6.40;99.90;;;;;;4959141;28;20042;-93
2022/11/18 04:20:19;;;;;;;20.48;12.13;;;7.40;99.90;;;;;;4941905;28;20100;-92
2022/11/18 04:22:45;;;;;;;18.48;11.35;;;7.70;99.90;;;;;;4959201;28;20046;-93
2022/11/18 04:25:11;;;;;;;18.27;11.65;;;7.80;99.90;;;;;;4943088;28;20046;-92
2022/11/18 04:27:37;;;;;;;19.42;11.93;;;6.60;99.90;;;;;;4975167;28;20089;-92
2022/11/18 04:30:04;;;;;;;19.83;11.90;;;7.50;99.90;;;;;;4939812;28;20046;-93
2022/11/18 04:32:30;;;;;;;19.95;11.85;;;6.40;99.90;;;;;;4959344;28;20039;-92
2022/11/18 04:34:56;;;;;;;19.10;11.70;;;7.60;99.90;;;;;;4962528;28;20097;-93
2022/11/18 04:37:21;;;;;;;20.52;11.93;;;6.30;99.90;;;;;;4946146;28;20142;-93
2022/11/18 04:39:47;;;;;;;22.25;12.55;;;7.80;99.90;;;;;;4962444;28;20038;-92
2022/11/18 04:42:13;;;;;;;18.73;11.10;;;6.30;99.90;;;;;;4948795;28;20097;-92
2022/11/18 04:44:38;;;;;;;18.25;10.88;;;6.30;99.90;;;;;;4966046;28;20111;-92
2022/11/18 04:47:05;;;;;;;20.08;10.95;;;6.30;99.90;;;;;;4981342;28;20042;-92
2022/11/18 04:49:32;;;;;;;21.00;11.50;;;6.60;99.90;;;;;;4965265;28;20041;-93
2022/11/18 04:51:58;;;;;;;18.23;11.10;;;7.50;99.90;;;;;;4964720;28;20530;-91
2022/11/18 04:54:25;;;;;;;19.85;10.73;;;7.40;99.90;;;;;;4965609;28;20153;-93
2022/11/18 04:56:52;;;;;;;17.48;10.50;;;6.30;99.90;;;;;;4965712;28;20038;-93
2022/11/18 04:59:21;;;;;;;20.08;11.02;;;7.40;99.90;;;;;;4949482;28;20045;-93
2022/11/18 05:01:47;;;;;;;23.27;11.43;;;6.30;99.90;;;;;;4980915;28;20042;-92
2022/11/18 05:04:15;;;;;;;19.73;11.68;;;6.30;99.90;;;;;;4966199;28;20193;-93
2022/11/18 05:06:42;;;;;;;18.27;10.25;;;6.40;99.90;;;;;;4965415;28;20050;-92
2022/11/18 05:09:08;;;;;;;19.60;10.77;;;7.70;99.90;;;;;;4965976;28;20034;-92
2022/11/18 05:14:18;;;;;;;19.90;11.68;;;7.60;99.90;;;;;;4967522;28;20049;-93
2022/11/18 05:16:44;;;;;;;18.60;10.93;;;6.30;99.90;;;;;;4980590;28;20038;-94
2022/11/18 05:19:10;;;;;;;19.90;10.43;;;6.30;99.90;;;;;;4961197;28;20065;-93
2022/11/18 05:21:36;;;;;;;19.45;11.00;;;6.30;99.90;;;;;;4963293;28;20073;-94
2022/11/18 05:24:03;;;;;;;19.63;10.57;;;7.50;99.90;;;;;;4936145;28;20088;-93
2022/11/18 05:26:29;;;;;;;23.70;10.88;;;6.30;99.90;;;;;;4980500;28;20050;-93
2022/11/18 05:28:55;;;;;;;21.08;11.10;;;7.90;99.90;;;;;;4967124;28;20049;-92
2022/11/18 05:31:21;;;;;;;18.88;10.35;;;6.30;99.90;;;;;;4948609;28;20108;-93
2022/11/18 05:33:47;;;;;;;17.95;10.25;;;6.20;99.90;;;;;;4981041;28;20038;-92
2022/11/18 05:36:15;;;;;;;21.02;11.05;;;6.20;99.90;;;;;;4948400;28;20042;-92
2022/11/18 05:38:41;;;;;;;20.13;10.88;;;6.20;99.90;;;;;;4945805;28;20042;-93
2022/11/18 05:41:07;;;;;;;20.63;10.63;;;6.20;99.90;;;;;;4945972;28;20488;-92
2022/11/18 05:43:34;;;;;;;20.33;10.60;;;6.20;99.90;;;;;;4978473;28;20035;-92
2022/11/18 05:46:01;;;;;;;20.60;10.23;;;6.20;99.90;;;;;;4946829;28;20041;-91
2022/11/18 05:48:26;;;;;;;22.77;11.25;;;6.20;99.90;;;;;;4977553;28;20056;-93
2022/11/18 05:50:53;;;;;;;20.80;11.15;;;6.20;99.90;;;;;;4943163;28;20046;-93
2022/11/18 05:53:23;;;;;;;18.98;10.40;;;7.10;99.90;;;;;;4963552;28;20042;-93
2022/11/18 05:56:27;;;;;;;22.67;11.13;;;7.50;99.90;;;;;;4963053;28;20034;-94
2022/11/18 05:58:52;;;;;;;20.20;10.15;;;6.20;99.90;;;;;;4961657;28;20423;-94
2022/11/18 06:01:44;;;;;;;21.02;11.13;;;6.20;99.90;;;;;;4960704;28;20144;-92
2022/11/18 06:04:38;;;;;;;19.67;10.25;;;6.20;99.90;;;;;;4962628;28;20049;-93
2022/11/18 06:07:21;;;;;;;23.77;11.60;;;6.20;99.90;;;;;;4955859;28;20054;-94
2022/11/18 06:09:50;;;;;;;20.58;11.00;;;6.20;99.90;;;;;;4981112;28;20069;-95
2022/11/18 06:12:22;;;;;;;19.40;10.50;;;6.70;99.90;;;;;;4964659;28;20034;-94
2022/11/18 06:14:55;;;;;;;19.73;10.60;;;7.40;99.90;;;;;;4965687;28;20030;-94
2022/11/18 06:17:29;;;;;;;21.33;11.93;;;6.20;99.90;;;;;;4956125;28;20492;-93
2022/11/18 06:19:55;;;;;;;20.27;10.20;;;6.20;99.90;;;;;;4948895;28;20046;-94
2022/11/18 06:22:21;;;;;;;21.38;10.63;;;6.20;99.90;;;;;;4990369;28;20344;-92
2022/11/18 06:24:47;;;;;;;19.75;11.10;;;6.10;99.90;;;;;;4983501;28;20246;-94
2022/11/18 06:27:14;;;;;;;22.92;11.85;;;7.00;99.90;;;;;;4967715;28;20043;-93
2022/11/18 06:29:40;;;;;;;20.80;11.50;;;6.20;99.90;;;;;;4985363;28;20058;-94
2022/11/18 06:32:05;;;;;;;22.20;11.82;;;7.60;99.90;;;;;;4969686;28;20070;-91
2022/11/18 06:34:31;;;;;;;24.48;11.88;;;6.20;99.90;;;;;;4985352;28;20042;-94
2022/11/18 06:36:57;;;;;;;23.10;11.63;;;7.50;99.90;;;;;;4967922;28;20030;-93
2022/11/18 06:39:23;;;;;;;21.75;11.98;;;6.20;99.90;;;;;;4969406;28;20032;-93
2022/11/18 06:41:51;;;;;;;24.52;12.23;;;6.20;99.90;;;;;;4969891;28;20062;-94
2022/11/18 06:44:16;;;;;;;23.08;12.05;;;6.20;99.90;;;;;;5001876;28;20082;-94
2022/11/18 06:46:54;;;;;;;24.25;11.68;;;7.20;99.90;;;;;;4951961;28;20510;-93
2022/11/18 06:49:20;;;;;;;25.20;12.13;;;6.20;99.90;;;;;;4930753;28;20035;-94
2022/11/18 06:51:45;;;;;;;24.25;11.73;;;6.40;99.90;;;;;;4951292;28;20034;-89
2022/11/18 06:54:11;;;;;;;28.63;13.35;;;6.10;99.90;;;;;;4967098;28;20093;-87
2022/11/18 06:56:37;;;;;;;26.40;13.73;;;6.10;99.90;;;;;;4973433;28;20038;-89
2022/11/18 06:59:03;;;;;;;27.70;13.75;;;5.10;99.90;;;;;;4957766;28;20057;-93
2022/11/18 07:01:33;;;;;;;25.85;14.23;;;7.70;99.90;;;;;;4944491;28;20040;-89
2022/11/18 07:03:59;;;;;;;25.88;15.70;;;6.70;99.90;;;;;;4958512;28;20039;-88
2022/11/18 07:06:27;;;;;;;26.58;15.07;;;6.10;99.90;;;;;;4952775;28;20042;-89
2022/11/18 07:08:53;;;;;;;30.60;15.73;;;6.10;99.90;;;;;;4978499;28;20034;-88
2022/11/18 07:11:21;;;;;;;33.53;16.77;;;7.00;99.90;;;;;;4942330;28;20040;-90
2022/11/18 07:13:47;;;;;;;32.42;16.70;;;6.40;99.90;;;;;;4974458;28;20101;-90
2022/11/18 07:16:18;;;;;;;27.98;16.25;;;6.00;99.90;;;;;;4975494;28;20038;-88
2022/11/18 07:18:45;;;;;;;29.70;16.77;;;6.00;99.90;;;;;;4958789;28;20384;-89
2022/11/18 07:21:13;;;;;;;29.23;15.88;;;6.20;99.90;;;;;;4927378;28;20391;-91
2022/11/18 07:23:39;;;;;;;28.85;15.88;;;6.20;99.90;;;;;;4958413;28;20038;-90
2022/11/18 07:26:05;;;;;;;29.23;15.75;;;6.40;99.90;;;;;;4944494;28;20100;-89
2022/11/18 07:28:32;;;;;;;28.80;15.82;;;6.30;99.90;;;;;;4979346;28;20088;-88
2022/11/18 07:31:09;;;;;;;27.15;15.60;;;7.10;99.90;;;;;;4957654;28;20423;-88
2022/11/18 07:33:35;;;;;;;29.70;15.93;;;5.90;99.90;;;;;;4975326;28;20097;-90
2022/11/18 07:36:07;;;;;;;24.95;14.80;;;6.20;99.90;;;;;;4941955;28;20030;-89
2022/11/18 07:38:33;;;;;;;28.02;15.00;;;5.90;99.90;;;;;;4957187;28;20052;-93
2022/11/18 07:41:04;;;;;;;27.75;15.10;;;6.60;99.90;;;;;;4943011;28;20046;-89
2022/11/18 07:43:31;;;;;;;29.88;14.98;;;6.90;99.90;;;;;;4958853;28;20407;-90
2022/11/18 07:45:56;;;;;;;26.00;15.18;;;6.00;99.90;;;;;;4958588;28;20104;-90
2022/11/18 07:48:22;;;;;;;30.30;15.30;;;7.30;99.90;;;;;;4938335;28;20043;-91
2022/11/18 07:50:48;;;;;;;25.48;14.07;;;6.10;99.90;;;;;;4944993;28;20439;-89
2022/11/18 07:53:13;;;;;;;26.77;14.32;;;5.90;99.90;;;;;;4942430;28;20126;-91
2022/11/18 07:55:39;;;;;;;26.60;13.77;;;5.90;99.90;;;;;;4941115;28;20128;-90
2022/11/18 07:58:04;;;;;;;27.02;13.82;;;6.00;99.90;;;;;;4926124;28;20053;-90
2022/11/18 08:00:30;;;;;;;25.08;14.18;;;5.90;99.90;;;;;;4940610;28;20049;-89
2022/11/18 08:02:56;;;;;;;24.17;13.68;;;6.90;99.90;;;;;;4939446;28;20046;-90
2022/11/18 08:05:21;;;;;;;27.55;14.73;;;7.00;99.90;;;;;;4953620;28;20053;-87
2022/11/18 08:07:47;;;;;;;29.80;14.38;;;6.00;99.90;;;;;;4953714;28;20038;-89
2022/11/18 08:10:13;;;;;;;23.40;14.15;;;6.80;99.90;;;;;;4944417;28;20038;-90
2022/11/18 08:12:38;;;;;;;26.13;15.30;;;6.00;99.90;;;;;;4952209;28;20035;-87
2022/11/18 08:15:05;;;;;;;26.42;15.63;;;5.90;99.90;;;;;;4939143;28;20095;-89
2022/11/18 08:17:31;;;;;;;26.05;14.35;;;5.90;99.90;;;;;;4952809;28;20062;-88
2022/11/18 08:19:57;;;;;;;30.58;16.25;;;5.90;99.90;;;;;;4950105;28;20042;-89
2022/11/18 08:22:22;;;;;;;27.23;15.57;;;6.00;99.90;;;;;;4940446;28;20038;-89
2022/11/18 08:24:48;;;;;;;26.40;16.05;;;6.90;99.90;;;;;;4940921;28;20180;-89
2022/11/18 08:27:14;;;;;;;26.65;15.77;;;7.00;99.90;;;;;;4936442;28;20049;-87
2022/11/18 08:29:40;;;;;;;28.98;16.27;;;;;;;;;;4934667;28;20051;-91
2022/11/18 08:32:06;;;;;;;26.40;16.10;;;6.00;99.90;;;;;;4952604;28;20093;-89
2022/11/18 08:34:31;;;;;;;25.73;15.05;;;5.90;99.90;;;;;;4942729;28;20046;-89
2022/11/18 08:36:57;;;;;;;25.55;15.57;;;5.90;99.90;;;;;;4963375;28;20122;-88
2022/11/18 08:39:23;;;;;;;29.10;16.00;;;5.90;99.90;;;;;;4947691;28;20042;-90
2022/11/18 08:41:49;;;;;;;26.80;15.63;;;5.90;99.90;;;;;;4945175;28;20046;-90
2022/11/18 08:44:15;;;;;;;28.27;15.63;;;7.30;99.90;;;;;;4944886;28;20173;-91
2022/11/18 08:46:45;;;;;;;24.75;14.70;;;5.90;99.90;;;;;;4933424;28;20067;-89
2022/11/18 08:49:11;;;;;;;24.92;14.70;;;5.90;99.90;;;;;;4949145;28;20042;-89
2022/11/18 08:51:37;;;;;;;27.40;15.45;;;6.00;99.90;;;;;;4967733;28;20038;-89
2022/11/18 08:54:02;;;;;;;28.02;14.70;;;6.00;99.90;;;;;;4933751;28;20141;-89
2022/11/18 08:56:28;;;;;;;26.27;15.38;;;6.00;99.90;;;;;;4946176;28;20050;-90
2022/11/18 08:58:55;;;;;;;25.92;15.57;;;5.90;99.90;;;;;;4965851;28;20266;-91
2022/11/18 09:01:21;;;;;;;26.90;15.77;;;6.00;99.90;;;;;;4930674;28;20479;-90
2022/11/18 09:03:48;;;;;;;29.77;16.13;;;6.50;99.90;;;;;;4948785;28;20035;-90
2022/11/18 09:06:16;;;;;;;25.65;15.00;;;5.90;99.90;;;;;;4930658;28;21207;-88
2022/11/18 09:08:42;;;;;;;24.95;14.65;;;5.90;99.90;;;;;;4950298;28;20488;-91
2022/11/18 09:11:17;;;;;;;26.08;13.90;;;6.20;99.90;;;;;;4948183;28;20168;-89
2022/11/18 09:13:42;;;;;;;27.08;14.65;;;5.90;99.90;;;;;;4949742;28;20034;-88
2022/11/18 09:16:08;;;;;;;24.67;13.40;;;6.70;99.90;;;;;;4933933;28;20496;-91
2022/11/18 09:18:35;;;;;;;21.95;13.15;;;5.80;99.90;;;;;;4943583;28;20174;-90
2022/11/18 09:21:03;;;;;;;24.40;13.65;;;7.00;99.90;;;;;;4946882;28;20131;-90
2022/11/18 09:23:31;;;;;;;25.02;13.15;;;5.80;99.90;;;;;;4953523;28;20045;-91
2022/11/18 09:26:12;;;;;;;24.05;13.40;;;6.70;99.90;;;;;;4937451;28;20038;-90
2022/11/18 09:28:38;;;;;;;23.27;12.77;;;6.70;99.90;;;;;;4949614;28;20113;-90
2022/11/18 09:31:09;;;;;;;22.30;11.85;;;6.40;99.90;;;;;;4937445;28;20497;-90
2022/11/18 09:33:36;;;;;;;20.23;11.82;;;5.70;99.90;;;;;;4951614;28;20042;-92
2022/11/18 09:36:03;;;;;;;21.75;11.98;;;7.30;99.90;;;;;;4949496;28;20053;-90
2022/11/18 09:38:30;;;;;;;20.73;11.45;;;5.80;99.90;;;;;;4948171;28;20047;-90
2022/11/18 09:41:19;;;;;;;20.00;11.23;;;5.70;99.90;;;;;;4933851;28;20042;-90
2022/11/18 09:44:29;;;;;;;19.50;11.45;;;6.20;99.90;;;;;;4965760;28;20049;-89
2022/11/18 09:46:58;;;;;;;21.20;12.00;;;5.80;99.90;;;;;;4959974;28;20074;-89
2022/11/18 09:49:36;;;;;;;20.70;12.35;;;5.80;99.90;;;;;;4964668;28;20043;-89
2022/11/18 09:52:15;;;;;;;24.33;12.98;;;5.70;99.90;;;;;;4948790;28;20042;-88
2022/11/18 09:54:41;;;;;;;21.95;12.20;;;5.70;99.90;;;;;;4950558;28;20043;-89
2022/11/18 09:57:25;;;;;;;20.85;12.48;;;5.70;99.90;;;;;;4961371;28;20104;-89
2022/11/18 09:59:51;;;;;;;22.52;12.48;;;5.70;99.90;;;;;;4949488;28;20043;-87
2022/11/18 10:02:54;;;;;;;22.80;12.40;;;7.40;99.90;;;;;;4946818;28;20046;-90
2022/11/18 10:05:55;;;;;;;21.02;12.00;;;5.70;99.90;;;;;;4947027;28;20039;-91
2022/11/18 10:08:48;;;;;;;20.92;11.63;;;5.70;99.90;;;;;;4961335;28;20057;-89
2022/11/18 10:11:18;;;;;;;21.65;12.23;;;5.70;99.90;;;;;;4968001;28;20045;-90
2022/11/18 10:14:03;;;;;;;20.88;11.50;;;5.60;99.90;;;;;;4946870;28;20456;-91
2022/11/18 10:16:34;;;;;;;20.92;11.43;;;5.70;99.90;;;;;;4967430;28;20053;-90
2022/11/18 10:19:31;;;;;;;19.55;11.10;;;5.60;99.90;;;;;;4966636;28;20039;-88
2022/11/18 10:22:25;;;;;;;20.75;11.52;;;5.60;99.90;;;;;;4931647;28;20046;-90
2022/11/18 10:24:54;;;;;;;20.27;11.15;;;5.60;99.90;;;;;;4965803;28;20043;-90
2022/11/18 10:27:21;;;;;;;20.25;11.25;;;5.60;99.90;;;;;;4965733;28;20781;-90
2022/11/18 10:29:55;;;;;;;20.88;11.80;;;5.50;99.90;;;;;;4965211;28;20055;-90
2022/11/18 10:32:21;;;;;;;23.08;13.45;;;5.50;99.90;;;;;;4966401;28;20027;-90
2022/11/18 10:34:51;;;;;;;24.10;12.95;;;5.40;99.90;;;;;;4951764;28;20415;-89
2022/11/18 10:37:28;;;;;;;26.42;14.70;;;5.40;99.90;;;;;;4945896;28;20039;-89
2022/11/18 10:39:59;;;;;;;26.90;14.43;;;5.40;99.90;;;;;;4966826;28;20066;-91
2022/11/18 10:42:32;;;;;;;26.55;14.18;;;5.30;99.90;;;;;;4951255;28;20090;-92
2022/11/18 10:45:14;;;;;;;;;;;5.30;99.90;;;;;;4951442;28;20110;-90
2022/11/18 10:47:40;;;;;;;23.00;13.40;;;6.20;99.90;;;;;;4950552;28;19925;-91
2022/11/18 10:50:33;;;;;;;24.08;13.73;;;5.30;99.90;;;;;;4966918;28;20397;-90
2022/11/18 10:52:59;;;;;;;25.83;14.20;;;5.30;99.90;;;;;;4964919;28;20074;-91
2022/11/18 10:55:26;;;;;;;25.58;13.80;;;5.20;99.90;;;;;;4967005;28;20043;-90
2022/11/18 10:58:02;;;;;;;26.65;14.65;;;5.20;99.90;;;;;;4947990;28;20544;-91
2022/11/18 11:00:38;;;;;;;26.33;14.98;;;5.20;99.90;;;;;;4948544;28;20500;-89
2022/11/18 11:03:24;;;;;;;26.75;14.05;;;5.20;99.90;;;;;;4946668;28;20035;-87
2022/11/18 11:06:20;;;;;;;28.08;15.13;;;5.20;99.90;;;;;;4947437;28;20050;-89
2022/11/18 11:09:05;;;;;;;26.35;13.35;;;5.20;99.90;;;;;;4960155;28;20086;-94
2022/11/18 11:11:42;;;;;;;26.17;13.80;;;5.10;99.90;;;;;;4947410;28;21183;-90
2022/11/18 11:14:14;;;;;;;27.65;14.00;;;5.20;99.90;;;;;;4947864;28;20047;-89
2022/11/18 11:17:05;;;;;;;30.55;14.55;;;5.10;99.90;;;;;;4963662;28;20550;-87
2022/11/18 11:20:04;;;;;;;27.48;14.05;;;5.10;99.90;;;;;;4943189;28;20039;-88
2022/11/18 11:22:30;;;;;;;25.90;13.27;;;5.10;99.90;;;;;;4931536;28;20047;-90
2022/11/18 11:24:56;;;;;;;23.75;13.10;;;5.00;99.90;;;;;;4960873;28;20499;-89
2022/11/18 11:27:27;;;;;;;26.73;13.65;;;5.70;99.90;;;;;;4947134;28;20142;-90
2022/11/18 11:30:14;;;;;;;24.90;13.55;;;5.60;99.90;;;;;;4948682;28;20117;-90
2022/11/18 11:32:58;;;;;;;23.45;13.90;;;5.00;99.90;;;;;;4947711;28;20113;-94
2022/11/18 11:36:02;;;;;;;24.90;14.63;;;3.70;99.90;;;;;;4947504;28;20035;-89
2022/11/18 11:38:48;;;;;;;26.50;13.80;;;5.00;99.90;;;;;;4965583;28;20035;-92
2022/11/18 11:41:34;;;;;;;26.38;14.27;;;5.00;99.90;;;;;;4945270;28;20066;-92
2022/11/18 11:44:26;;;;;;;24.02;13.10;;;5.00;99.90;;;;;;4963759;28;20503;-92
2022/11/18 11:50:09;;;;;;;26.50;14.18;;;5.00;99.90;;;;;;4978649;28;20526;-90
2022/11/18 11:52:41;;;;;;;27.45;15.00;;;4.90;99.90;;;;;;4964508;28;20035;-91
2022/11/18 11:55:34;;;;;;;25.80;13.95;;;6.20;99.90;;;;;;4953141;28;20034;-92
2022/11/18 11:58:27;;;;;;;24.45;14.10;;;4.90;99.90;;;;;;4968445;28;20074;-91
2022/11/18 12:01:12;;;;;;;27.48;14.15;;;4.90;99.90;;;;;;4944745;28;20105;-91
2022/11/18 12:03:47;;;;;;;26.38;13.60;;;5.50;99.90;;;;;;4954789;28;20049;-91
2022/11/18 12:06:13;;;;;;;26.70;13.73;;;6.00;99.90;;;;;;4955578;28;20050;-91
2022/11/18 12:09:13;;;;;;;24.67;14.30;;;4.90;99.90;;;;;;4989135;28;20046;-91
2022/11/18 12:15:19;;;;;;;25.80;13.65;;;4.80;99.90;;;;;;4967718;28;20071;-92
2022/11/18 12:18:14;;;;;;;24.75;13.98;;;4.80;99.90;;;;;;4975189;28;20093;-92
2022/11/18 12:20:49;;;;;;;22.10;12.60;;;4.80;99.90;;;;;;4955399;28;20488;-90
2022/11/18 12:23:22;;;;;;;25.65;13.88;;;4.80;99.90;;;;;;4953942;28;20039;-92
2022/11/18 12:26:01;;;;;;;;;;;6.30;99.90;;;;;;4971742;28;20090;-92
2022/11/18 12:28:41;;;;;;;23.75;13.15;;;4.80;99.90;;;;;;4972587;28;20374;-91
2022/11/18 12:31:17;;;;;;;23.92;12.68;;;4.80;99.90;;;;;;4941427;28;20122;-94
2022/11/18 12:34:17;;;;;;;24.52;11.88;;;4.70;99.90;;;;;;4951602;28;20060;-92
2022/11/18 12:36:43;;;;;;;21.88;12.18;;;6.10;99.90;;;;;;4953885;28;20142;-92
2022/11/18 12:39:24;;;;;;;24.65;12.85;;;4.70;99.90;;;;;;4970877;28;20118;-92
2022/11/18 12:44:50;;;;;;;22.77;11.55;;;4.60;99.90;;;;;;4969926;28;20086;-88
2022/11/18 12:47:39;;;;;;;20.15;11.85;;;5.90;99.90;;;;;;4953533;28;20047;-90
2022/11/18 12:50:14;;;;;;;21.27;12.23;;;4.60;99.90;;;;;;4939494;28;20031;-88
2022/11/18 12:52:39;;;;;;;22.80;12.50;;;4.60;99.90;;;;;;4953840;28;20392;-87
2022/11/18 12:55:29;;;;;;;22.75;12.40;;;4.50;99.90;;;;;;4952514;28;20039;-90
2022/11/18 12:57:55;;;;;;;22.15;12.18;;;4.50;99.90;;;;;;4957498;28;20400;-91
2022/11/18 13:00:24;;;;;;;22.23;12.82;;;5.90;99.90;;;;;;4958149;28;20045;-90
2022/11/18 13:02:55;;;;;;;23.45;12.85;;;4.50;99.90;;;;;;4970212;28;20097;-90
2022/11/18 13:05:23;;;;;;;24.23;14.13;;;5.20;99.90;;;;;;4948027;28;20058;-87
2022/11/18 13:10:44;;;;;;;26.90;13.45;;;4.40;99.90;;;;;;4973349;28;20101;-90
2022/11/18 13:13:29;;;;;;;26.20;14.85;;;4.40;99.90;;;;;;4958135;28;20118;-89
2022/11/18 13:18:52;;;;;;;24.70;14.18;;;5.50;99.90;;;;;;4972346;28;20053;-90
2022/11/18 13:24:16;;;;;;;27.02;14.02;;;4.30;99.90;;;;;;4970888;28;20543;-91
2022/11/18 13:26:43;;;;;;;26.15;13.95;;;4.30;99.90;;;;;;4940212;28;20415;-90
2022/11/18 13:29:31;;;;;;;27.33;14.55;;;5.00;99.90;;;;;;4957462;28;20352;-90
2022/11/18 13:31:57;;;;;;;27.65;15.07;;;4.20;99.90;;;;;;4956485;28;20401;-89